sensor_id;sensor_type;location;lat;lon;timestamp;P1;durP1;ratioP1;P2;durP2;ratioP2
3769;SDS011;1900;48.890;9.190;2023-07-28T00:02:05;7.00;;;4.30;;
3769;SDS011;1900;48.890;9.190;2023-07-28T00:04:31;5.90;;;4.70;;
3769;SDS011;1900;48.890;9.190;2023-07-28T00:06:58;5.90;;;4.50;;
3769;SDS011;1900;48.890;9.190;2023-07-28T00:09:24;7.97;;;4.23;;
3769;SDS011;1900;48.890;9.190;2023-07-28T00:11:50;7.00;;;3.70;;
3769;SDS011;1900;48.890;9.190;2023-07-28T00:14:15;6.87;;;4.33;;
3769;SDS011;1900;48.890;9.190;2023-07-28T00:16:41;5.50;;;4.40;;
3769;SDS011;1900;48.890;9.190;2023-07-28T00:19:07;6.90;;;4.17;;
3769;SDS011;1900;48.890;9.190;2023-07-28T00:21:32;6.67;;;3.50;;
3769;SDS011;1900;48.890;9.190;2023-07-28T00:23:58;5.73;;;3.97;;
3769;SDS011;1900;48.890;9.190;2023-07-28T00:26:24;6.63;;;3.33;;
3769;SDS011;1900;48.890;9.190;2023-07-28T00:28:50;5.27;;;3.40;;
3769;SDS011;1900;48.890;9.190;2023-07-28T00:31:18;4.10;;;3.50;;
3769;SDS011;1900;48.890;9.190;2023-07-28T00:33:43;7.20;;;3.57;;
3769;SDS011;1900;48.890;9.190;2023-07-28T00:36:09;6.10;;;3.47;;
3769;SDS011;1900;48.890;9.190;2023-07-28T00:38:35;6.77;;;4.47;;
3769;SDS011;1900;48.890;9.190;2023-07-28T00:41:01;4.10;;;3.53;;
3769;SDS011;1900;48.890;9.190;2023-07-28T00:43:26;3.63;;;2.63;;
3769;SDS011;1900;48.890;9.190;2023-07-28T00:45:52;3.70;;;3.30;;
3769;SDS011;1900;48.890;9.190;2023-07-28T00:48:18;5.17;;;3.40;;
3769;SDS011;1900;48.890;9.190;2023-07-28T00:50:45;6.53;;;3.27;;
3769;SDS011;1900;48.890;9.190;2023-07-28T00:53:13;4.00;;;3.10;;
3769;SDS011;1900;48.890;9.190;2023-07-28T00:55:39;4.70;;;3.37;;
3769;SDS011;1900;48.890;9.190;2023-07-28T00:58:05;5.10;;;3.60;;
3769;SDS011;1900;48.890;9.190;2023-07-28T01:00:31;3.87;;;3.17;;
3769;SDS011;1900;48.890;9.190;2023-07-28T01:02:57;4.13;;;3.00;;
3769;SDS011;1900;48.890;9.190;2023-07-28T01:05:39;6.50;;;3.70;;
3769;SDS011;1900;48.890;9.190;2023-07-28T01:11:01;4.83;;;3.63;;
3769;SDS011;1900;48.890;9.190;2023-07-28T01:13:26;4.50;;;3.40;;
3769;SDS011;1900;48.890;9.190;2023-07-28T01:15:53;7.50;;;5.00;;
3769;SDS011;1900;48.890;9.190;2023-07-28T01:18:18;8.70;;;3.70;;
3769;SDS011;1900;48.890;9.190;2023-07-28T01:20:44;6.07;;;3.30;;
3769;SDS011;1900;48.890;9.190;2023-07-28T01:23:30;5.03;;;3.47;;
3769;SDS011;1900;48.890;9.190;2023-07-28T01:26:15;6.53;;;3.70;;
3769;SDS011;1900;48.890;9.190;2023-07-28T01:28:42;5.37;;;3.40;;
3769;SDS011;1900;48.890;9.190;2023-07-28T01:31:09;6.53;;;3.50;;
3769;SDS011;1900;48.890;9.190;2023-07-28T01:33:35;5.50;;;3.30;;
3769;SDS011;1900;48.890;9.190;2023-07-28T01:36:01;4.70;;;3.40;;
3769;SDS011;1900;48.890;9.190;2023-07-28T01:38:27;6.63;;;4.30;;
3769;SDS011;1900;48.890;9.190;2023-07-28T01:40:53;5.00;;;4.00;;
3769;SDS011;1900;48.890;9.190;2023-07-28T01:43:19;6.13;;;3.77;;
3769;SDS011;1900;48.890;9.190;2023-07-28T01:45:45;5.27;;;4.00;;
3769;SDS011;1900;48.890;9.190;2023-07-28T01:48:10;4.67;;;3.47;;
3769;SDS011;1900;48.890;9.190;2023-07-28T01:50:37;11.13;;;3.90;;
3769;SDS011;1900;48.890;9.190;2023-07-28T01:53:06;4.27;;;3.30;;
3769;SDS011;1900;48.890;9.190;2023-07-28T01:55:32;7.10;;;3.30;;
3769;SDS011;1900;48.890;9.190;2023-07-28T01:57:58;5.80;;;4.20;;
3769;SDS011;1900;48.890;9.190;2023-07-28T02:00:25;10.17;;;3.87;;
3769;SDS011;1900;48.890;9.190;2023-07-28T02:02:52;7.20;;;3.80;;
3769;SDS011;1900;48.890;9.190;2023-07-28T02:05:19;7.63;;;3.67;;
3769;SDS011;1900;48.890;9.190;2023-07-28T02:07:45;6.37;;;3.00;;
3769;SDS011;1900;48.890;9.190;2023-07-28T02:10:11;4.10;;;3.03;;
3769;SDS011;1900;48.890;9.190;2023-07-28T02:12:37;8.87;;;3.77;;
3769;SDS011;1900;48.890;9.190;2023-07-28T02:15:04;4.07;;;3.20;;
3769;SDS011;1900;48.890;9.190;2023-07-28T02:17:30;3.20;;;2.90;;
3769;SDS011;1900;48.890;9.190;2023-07-28T02:19:59;9.17;;;3.80;;
3769;SDS011;1900;48.890;9.190;2023-07-28T02:22:26;3.93;;;3.17;;
3769;SDS011;1900;48.890;9.190;2023-07-28T02:24:52;5.70;;;3.37;;
3769;SDS011;1900;48.890;9.190;2023-07-28T02:27:17;4.47;;;3.90;;
3769;SDS011;1900;48.890;9.190;2023-07-28T02:29:43;5.90;;;3.70;;
3769;SDS011;1900;48.890;9.190;2023-07-28T02:32:10;4.93;;;3.47;;
3769;SDS011;1900;48.890;9.190;2023-07-28T02:34:36;3.37;;;3.00;;
3769;SDS011;1900;48.890;9.190;2023-07-28T02:37:01;6.23;;;3.70;;
3769;SDS011;1900;48.890;9.190;2023-07-28T02:39:27;4.30;;;3.40;;
3769;SDS011;1900;48.890;9.190;2023-07-28T02:41:53;5.97;;;3.27;;
3769;SDS011;1900;48.890;9.190;2023-07-28T02:44:19;4.93;;;3.60;;
3769;SDS011;1900;48.890;9.190;2023-07-28T02:46:45;3.87;;;2.70;;
3769;SDS011;1900;48.890;9.190;2023-07-28T02:49:11;6.50;;;3.57;;
3769;SDS011;1900;48.890;9.190;2023-07-28T02:51:36;6.03;;;3.60;;
3769;SDS011;1900;48.890;9.190;2023-07-28T02:54:02;5.03;;;3.50;;
3769;SDS011;1900;48.890;9.190;2023-07-28T02:56:28;8.50;;;4.63;;
3769;SDS011;1900;48.890;9.190;2023-07-28T02:58:54;6.97;;;4.07;;
3769;SDS011;1900;48.890;9.190;2023-07-28T03:01:20;7.60;;;4.20;;
3769;SDS011;1900;48.890;9.190;2023-07-28T03:03:46;5.57;;;4.00;;
3769;SDS011;1900;48.890;9.190;2023-07-28T03:06:12;10.07;;;4.70;;
3769;SDS011;1900;48.890;9.190;2023-07-28T03:08:40;6.20;;;4.87;;
3769;SDS011;1900;48.890;9.190;2023-07-28T03:11:28;6.93;;;4.60;;
3769;SDS011;1900;48.890;9.190;2023-07-28T03:13:54;10.47;;;5.00;;
3769;SDS011;1900;48.890;9.190;2023-07-28T03:16:20;7.73;;;3.77;;
3769;SDS011;1900;48.890;9.190;2023-07-28T03:18:45;5.47;;;3.90;;
3769;SDS011;1900;48.890;9.190;2023-07-28T03:21:11;4.53;;;3.80;;
3769;SDS011;1900;48.890;9.190;2023-07-28T03:23:37;4.90;;;4.00;;
3769;SDS011;1900;48.890;9.190;2023-07-28T03:26:02;5.20;;;3.83;;
3769;SDS011;1900;48.890;9.190;2023-07-28T03:28:28;7.70;;;3.80;;
3769;SDS011;1900;48.890;9.190;2023-07-28T03:30:54;4.20;;;3.50;;
3769;SDS011;1900;48.890;9.190;2023-07-28T03:33:20;4.03;;;3.23;;
3769;SDS011;1900;48.890;9.190;2023-07-28T03:35:45;8.30;;;4.00;;
3769;SDS011;1900;48.890;9.190;2023-07-28T03:38:12;6.00;;;3.10;;
3769;SDS011;1900;48.890;9.190;2023-07-28T03:40:39;5.50;;;3.40;;
3769;SDS011;1900;48.890;9.190;2023-07-28T03:43:05;3.80;;;2.93;;
3769;SDS011;1900;48.890;9.190;2023-07-28T03:45:30;3.83;;;2.90;;
3769;SDS011;1900;48.890;9.190;2023-07-28T03:47:56;8.80;;;3.90;;
3769;SDS011;1900;48.890;9.190;2023-07-28T03:50:22;3.70;;;3.20;;
3769;SDS011;1900;48.890;9.190;2023-07-28T03:52:49;7.07;;;3.20;;
3769;SDS011;1900;48.890;9.190;2023-07-28T03:55:15;7.73;;;3.63;;
3769;SDS011;1900;48.890;9.190;2023-07-28T03:57:40;4.73;;;3.03;;
3769;SDS011;1900;48.890;9.190;2023-07-28T04:00:07;6.50;;;3.27;;
3769;SDS011;1900;48.890;9.190;2023-07-28T04:02:40;9.40;;;3.40;;
3769;SDS011;1900;48.890;9.190;2023-07-28T04:05:05;8.43;;;3.43;;
3769;SDS011;1900;48.890;9.190;2023-07-28T04:07:31;6.60;;;3.40;;
3769;SDS011;1900;48.890;9.190;2023-07-28T04:09:57;5.10;;;3.60;;
3769;SDS011;1900;48.890;9.190;2023-07-28T04:12:23;4.63;;;3.47;;
3769;SDS011;1900;48.890;9.190;2023-07-28T04:14:48;5.63;;;3.20;;
3769;SDS011;1900;48.890;9.190;2023-07-28T04:17:14;7.00;;;3.33;;
3769;SDS011;1900;48.890;9.190;2023-07-28T04:19:40;5.83;;;3.70;;
3769;SDS011;1900;48.890;9.190;2023-07-28T04:22:05;5.90;;;4.30;;
3769;SDS011;1900;48.890;9.190;2023-07-28T04:24:32;5.60;;;4.30;;
3769;SDS011;1900;48.890;9.190;2023-07-28T04:26:58;7.83;;;4.80;;
3769;SDS011;1900;48.890;9.190;2023-07-28T04:29:24;4.77;;;4.07;;
3769;SDS011;1900;48.890;9.190;2023-07-28T04:31:50;6.83;;;5.00;;
3769;SDS011;1900;48.890;9.190;2023-07-28T04:34:23;7.93;;;4.90;;
3769;SDS011;1900;48.890;9.190;2023-07-28T04:37:09;7.13;;;4.93;;
3769;SDS011;1900;48.890;9.190;2023-07-28T04:40:01;9.60;;;4.60;;
3769;SDS011;1900;48.890;9.190;2023-07-28T04:42:33;6.17;;;4.73;;
3769;SDS011;1900;48.890;9.190;2023-07-28T04:44:58;11.53;;;4.33;;
3769;SDS011;1900;48.890;9.190;2023-07-28T04:47:24;7.10;;;4.60;;
3769;SDS011;1900;48.890;9.190;2023-07-28T04:49:50;5.40;;;4.13;;
3769;SDS011;1900;48.890;9.190;2023-07-28T04:52:38;5.63;;;3.70;;
3769;SDS011;1900;48.890;9.190;2023-07-28T04:55:22;15.67;;;4.40;;
3769;SDS011;1900;48.890;9.190;2023-07-28T04:57:48;7.30;;;5.00;;
3769;SDS011;1900;48.890;9.190;2023-07-28T05:00:14;5.90;;;4.33;;
3769;SDS011;1900;48.890;9.190;2023-07-28T05:02:40;8.87;;;4.77;;
3769;SDS011;1900;48.890;9.190;2023-07-28T05:05:06;7.83;;;5.90;;
3769;SDS011;1900;48.890;9.190;2023-07-28T05:07:32;6.80;;;4.20;;
3769;SDS011;1900;48.890;9.190;2023-07-28T05:09:57;8.43;;;3.97;;
3769;SDS011;1900;48.890;9.190;2023-07-28T05:12:25;7.90;;;3.73;;
3769;SDS011;1900;48.890;9.190;2023-07-28T05:14:51;4.73;;;3.57;;
3769;SDS011;1900;48.890;9.190;2023-07-28T05:17:19;8.27;;;3.80;;
3769;SDS011;1900;48.890;9.190;2023-07-28T05:20:04;6.77;;;4.30;;
3769;SDS011;1900;48.890;9.190;2023-07-28T05:22:42;7.23;;;4.57;;
3769;SDS011;1900;48.890;9.190;2023-07-28T05:25:08;6.20;;;4.60;;
3769;SDS011;1900;48.890;9.190;2023-07-28T05:27:38;5.17;;;4.07;;
3769;SDS011;1900;48.890;9.190;2023-07-28T05:30:03;4.93;;;3.73;;
3769;SDS011;1900;48.890;9.190;2023-07-28T05:32:30;6.70;;;4.50;;
3769;SDS011;1900;48.890;9.190;2023-07-28T05:35:25;3.77;;;3.23;;
3769;SDS011;1900;48.890;9.190;2023-07-28T05:37:51;6.50;;;3.57;;
3769;SDS011;1900;48.890;9.190;2023-07-28T05:40:16;6.27;;;3.90;;
3769;SDS011;1900;48.890;9.190;2023-07-28T05:42:42;6.20;;;3.90;;
3769;SDS011;1900;48.890;9.190;2023-07-28T05:45:08;7.50;;;4.10;;
3769;SDS011;1900;48.890;9.190;2023-07-28T05:47:34;6.97;;;4.20;;
3769;SDS011;1900;48.890;9.190;2023-07-28T05:50:00;5.13;;;3.60;;
3769;SDS011;1900;48.890;9.190;2023-07-28T05:52:26;4.70;;;3.70;;
3769;SDS011;1900;48.890;9.190;2023-07-28T05:54:52;8.93;;;4.30;;
3769;SDS011;1900;48.890;9.190;2023-07-28T05:57:17;7.83;;;5.47;;
3769;SDS011;1900;48.890;9.190;2023-07-28T05:59:43;8.83;;;4.90;;
3769;SDS011;1900;48.890;9.190;2023-07-28T06:02:09;8.30;;;5.00;;
3769;SDS011;1900;48.890;9.190;2023-07-28T06:04:43;9.50;;;6.53;;
3769;SDS011;1900;48.890;9.190;2023-07-28T06:07:09;7.73;;;5.97;;
3769;SDS011;1900;48.890;9.190;2023-07-28T06:09:35;11.40;;;5.47;;
3769;SDS011;1900;48.890;9.190;2023-07-28T06:12:01;7.13;;;5.10;;
3769;SDS011;1900;48.890;9.190;2023-07-28T06:14:27;8.83;;;4.70;;
3769;SDS011;1900;48.890;9.190;2023-07-28T06:16:54;6.97;;;4.50;;
3769;SDS011;1900;48.890;9.190;2023-07-28T06:19:21;8.17;;;4.90;;
3769;SDS011;1900;48.890;9.190;2023-07-28T06:21:50;5.60;;;4.20;;
3769;SDS011;1900;48.890;9.190;2023-07-28T06:24:16;4.80;;;3.70;;
3769;SDS011;1900;48.890;9.190;2023-07-28T06:26:42;6.20;;;3.90;;
3769;SDS011;1900;48.890;9.190;2023-07-28T06:29:08;4.40;;;3.53;;
3769;SDS011;1900;48.890;9.190;2023-07-28T06:31:34;7.37;;;4.40;;
3769;SDS011;1900;48.890;9.190;2023-07-28T06:33:59;6.60;;;4.80;;
3769;SDS011;1900;48.890;9.190;2023-07-28T06:36:25;5.90;;;4.00;;
3769;SDS011;1900;48.890;9.190;2023-07-28T06:38:52;9.87;;;3.60;;
3769;SDS011;1900;48.890;9.190;2023-07-28T06:41:20;5.00;;;3.30;;
3769;SDS011;1900;48.890;9.190;2023-07-28T06:43:46;7.40;;;3.57;;
3769;SDS011;1900;48.890;9.190;2023-07-28T06:46:13;6.53;;;2.70;;
3769;SDS011;1900;48.890;9.190;2023-07-28T06:48:40;4.20;;;3.00;;
3769;SDS011;1900;48.890;9.190;2023-07-28T06:51:06;3.50;;;2.93;;
3769;SDS011;1900;48.890;9.190;2023-07-28T06:53:32;4.97;;;3.47;;
3769;SDS011;1900;48.890;9.190;2023-07-28T06:55:59;7.00;;;3.03;;
3769;SDS011;1900;48.890;9.190;2023-07-28T06:58:25;6.80;;;3.77;;
3769;SDS011;1900;48.890;9.190;2023-07-28T07:00:51;6.80;;;4.80;;
3769;SDS011;1900;48.890;9.190;2023-07-28T07:03:17;6.70;;;3.60;;
3769;SDS011;1900;48.890;9.190;2023-07-28T07:05:43;5.70;;;3.23;;
3769;SDS011;1900;48.890;9.190;2023-07-28T07:08:08;8.93;;;6.47;;
3769;SDS011;1900;48.890;9.190;2023-07-28T07:10:34;7.03;;;4.83;;
3769;SDS011;1900;48.890;9.190;2023-07-28T07:13:00;4.70;;;4.03;;
3769;SDS011;1900;48.890;9.190;2023-07-28T07:15:26;5.57;;;3.67;;
3769;SDS011;1900;48.890;9.190;2023-07-28T07:17:51;4.07;;;3.03;;
3769;SDS011;1900;48.890;9.190;2023-07-28T07:20:17;5.27;;;3.27;;
3769;SDS011;1900;48.890;9.190;2023-07-28T07:22:44;5.63;;;3.53;;
3769;SDS011;1900;48.890;9.190;2023-07-28T07:25:09;13.50;;;3.90;;
3769;SDS011;1900;48.890;9.190;2023-07-28T07:27:35;6.83;;;3.80;;
3769;SDS011;1900;48.890;9.190;2023-07-28T07:30:01;4.47;;;3.80;;
3769;SDS011;1900;48.890;9.190;2023-07-28T07:32:29;5.77;;;4.20;;
3769;SDS011;1900;48.890;9.190;2023-07-28T07:34:54;4.47;;;3.10;;
3769;SDS011;1900;48.890;9.190;2023-07-28T07:37:20;3.30;;;2.87;;
3769;SDS011;1900;48.890;9.190;2023-07-28T07:39:46;4.20;;;2.83;;
3769;SDS011;1900;48.890;9.190;2023-07-28T07:42:11;6.63;;;3.30;;
3769;SDS011;1900;48.890;9.190;2023-07-28T07:44:38;4.70;;;3.57;;
3769;SDS011;1900;48.890;9.190;2023-07-28T07:47:11;3.50;;;2.77;;
3769;SDS011;1900;48.890;9.190;2023-07-28T07:49:39;5.67;;;3.20;;
3769;SDS011;1900;48.890;9.190;2023-07-28T07:52:06;3.97;;;3.30;;
3769;SDS011;1900;48.890;9.190;2023-07-28T07:54:32;4.93;;;3.57;;
3769;SDS011;1900;48.890;9.190;2023-07-28T07:56:58;3.97;;;3.10;;
3769;SDS011;1900;48.890;9.190;2023-07-28T07:59:23;9.10;;;3.80;;
3769;SDS011;1900;48.890;9.190;2023-07-28T08:01:53;5.37;;;3.70;;
3769;SDS011;1900;48.890;9.190;2023-07-28T08:04:19;5.20;;;3.50;;
3769;SDS011;1900;48.890;9.190;2023-07-28T08:06:45;3.80;;;2.50;;
3769;SDS011;1900;48.890;9.190;2023-07-28T08:09:11;3.80;;;3.03;;
3769;SDS011;1900;48.890;9.190;2023-07-28T08:11:37;3.20;;;2.70;;
3769;SDS011;1900;48.890;9.190;2023-07-28T08:14:02;2.87;;;2.57;;
3769;SDS011;1900;48.890;9.190;2023-07-28T08:16:28;3.00;;;2.60;;
3769;SDS011;1900;48.890;9.190;2023-07-28T08:18:54;5.40;;;2.93;;
3769;SDS011;1900;48.890;9.190;2023-07-28T08:21:19;3.50;;;2.20;;
3769;SDS011;1900;48.890;9.190;2023-07-28T08:23:45;2.57;;;2.10;;
3769;SDS011;1900;48.890;9.190;2023-07-28T08:26:11;3.10;;;1.83;;
3769;SDS011;1900;48.890;9.190;2023-07-28T08:28:36;2.00;;;1.80;;
3769;SDS011;1900;48.890;9.190;2023-07-28T08:31:02;3.43;;;2.13;;
3769;SDS011;1900;48.890;9.190;2023-07-28T08:33:29;2.57;;;1.90;;
3769;SDS011;1900;48.890;9.190;2023-07-28T08:35:55;4.07;;;2.17;;
3769;SDS011;1900;48.890;9.190;2023-07-28T08:38:20;2.60;;;1.97;;
3769;SDS011;1900;48.890;9.190;2023-07-28T08:40:46;2.20;;;1.83;;
3769;SDS011;1900;48.890;9.190;2023-07-28T08:43:12;3.17;;;2.27;;
3769;SDS011;1900;48.890;9.190;2023-07-28T08:45:38;2.20;;;2.00;;
3769;SDS011;1900;48.890;9.190;2023-07-28T08:48:04;2.07;;;1.87;;
3769;SDS011;1900;48.890;9.190;2023-07-28T08:50:30;2.90;;;2.17;;
3769;SDS011;1900;48.890;9.190;2023-07-28T08:52:56;2.80;;;2.43;;
3769;SDS011;1900;48.890;9.190;2023-07-28T08:55:22;3.00;;;1.83;;
3769;SDS011;1900;48.890;9.190;2023-07-28T08:57:48;2.83;;;2.13;;
3769;SDS011;1900;48.890;9.190;2023-07-28T09:00:14;3.63;;;2.50;;
3769;SDS011;1900;48.890;9.190;2023-07-28T09:02:43;2.47;;;1.90;;
3769;SDS011;1900;48.890;9.190;2023-07-28T09:05:21;3.27;;;1.87;;
3769;SDS011;1900;48.890;9.190;2023-07-28T09:07:49;2.30;;;1.70;;
3769;SDS011;1900;48.890;9.190;2023-07-28T09:10:15;3.90;;;1.97;;
3769;SDS011;1900;48.890;9.190;2023-07-28T09:12:44;4.17;;;2.37;;
3769;SDS011;1900;48.890;9.190;2023-07-28T09:15:11;2.67;;;2.47;;
3769;SDS011;1900;48.890;9.190;2023-07-28T09:17:41;6.03;;;2.37;;
3769;SDS011;1900;48.890;9.190;2023-07-28T09:20:14;3.47;;;2.13;;
3769;SDS011;1900;48.890;9.190;2023-07-28T09:22:41;3.53;;;2.30;;
3769;SDS011;1900;48.890;9.190;2023-07-28T09:25:13;2.37;;;2.00;;
3769;SDS011;1900;48.890;9.190;2023-07-28T09:27:40;3.03;;;1.97;;
3769;SDS011;1900;48.890;9.190;2023-07-28T09:30:06;2.40;;;1.80;;
3769;SDS011;1900;48.890;9.190;2023-07-28T09:32:32;2.23;;;2.03;;
3769;SDS011;1900;48.890;9.190;2023-07-28T09:37:37;3.80;;;2.17;;
3769;SDS011;1900;48.890;9.190;2023-07-28T09:40:04;3.30;;;2.37;;
3769;SDS011;1900;48.890;9.190;2023-07-28T09:42:38;2.00;;;1.80;;
3769;SDS011;1900;48.890;9.190;2023-07-28T09:45:05;5.10;;;2.63;;
3769;SDS011;1900;48.890;9.190;2023-07-28T09:47:33;2.57;;;2.07;;
3769;SDS011;1900;48.890;9.190;2023-07-28T09:50:01;5.77;;;2.17;;
3769;SDS011;1900;48.890;9.190;2023-07-28T09:52:30;2.70;;;2.30;;
3769;SDS011;1900;48.890;9.190;2023-07-28T09:55:05;2.50;;;2.07;;
3769;SDS011;1900;48.890;9.190;2023-07-28T09:57:38;3.97;;;2.23;;
3769;SDS011;1900;48.890;9.190;2023-07-28T10:00:07;1.80;;;1.70;;
3769;SDS011;1900;48.890;9.190;2023-07-28T10:02:37;2.93;;;2.10;;
3769;SDS011;1900;48.890;9.190;2023-07-28T10:05:04;2.60;;;2.30;;
3769;SDS011;1900;48.890;9.190;2023-07-28T10:07:37;2.90;;;1.60;;
3769;SDS011;1900;48.890;9.190;2023-07-28T10:10:04;3.63;;;2.30;;
3769;SDS011;1900;48.890;9.190;2023-07-28T10:12:48;3.83;;;2.30;;
3769;SDS011;1900;48.890;9.190;2023-07-28T10:15:16;5.33;;;3.70;;
3769;SDS011;1900;48.890;9.190;2023-07-28T10:17:44;3.47;;;2.67;;
3769;SDS011;1900;48.890;9.190;2023-07-28T10:20:26;2.23;;;1.90;;
3769;SDS011;1900;48.890;9.190;2023-07-28T10:23:28;2.67;;;2.03;;
3769;SDS011;1900;48.890;9.190;2023-07-28T10:25:55;3.37;;;2.17;;
3769;SDS011;1900;48.890;9.190;2023-07-28T10:28:30;2.47;;;2.27;;
3769;SDS011;1900;48.890;9.190;2023-07-28T10:30:57;2.60;;;1.70;;
3769;SDS011;1900;48.890;9.190;2023-07-28T10:38:37;3.27;;;1.73;;
3769;SDS011;1900;48.890;9.190;2023-07-28T10:41:06;1.70;;;1.60;;
3769;SDS011;1900;48.890;9.190;2023-07-28T10:43:36;3.87;;;3.30;;
3769;SDS011;1900;48.890;9.190;2023-07-28T10:46:03;4.03;;;1.90;;
3769;SDS011;1900;48.890;9.190;2023-07-28T10:48:31;2.50;;;2.30;;
3769;SDS011;1900;48.890;9.190;2023-07-28T10:50:57;2.10;;;1.70;;
3769;SDS011;1900;48.890;9.190;2023-07-28T10:53:22;3.10;;;2.03;;
3769;SDS011;1900;48.890;9.190;2023-07-28T10:55:48;4.20;;;3.03;;
3769;SDS011;1900;48.890;9.190;2023-07-28T10:58:17;3.50;;;1.70;;
3769;SDS011;1900;48.890;9.190;2023-07-28T11:00:45;2.30;;;2.03;;
3769;SDS011;1900;48.890;9.190;2023-07-28T11:03:11;2.27;;;1.83;;
3769;SDS011;1900;48.890;9.190;2023-07-28T11:05:37;8.87;;;2.37;;
3769;SDS011;1900;48.890;9.190;2023-07-28T11:08:05;2.60;;;2.37;;
3769;SDS011;1900;48.890;9.190;2023-07-28T11:10:32;2.27;;;1.70;;
3769;SDS011;1900;48.890;9.190;2023-07-28T11:13:03;3.87;;;1.63;;
3769;SDS011;1900;48.890;9.190;2023-07-28T11:15:31;1.97;;;1.77;;
3769;SDS011;1900;48.890;9.190;2023-07-28T11:17:58;2.07;;;1.70;;
3769;SDS011;1900;48.890;9.190;2023-07-28T11:20:25;2.93;;;1.90;;
3769;SDS011;1900;48.890;9.190;2023-07-28T11:22:58;2.10;;;1.90;;
3769;SDS011;1900;48.890;9.190;2023-07-28T11:25:25;1.87;;;1.67;;
3769;SDS011;1900;48.890;9.190;2023-07-28T11:27:52;2.73;;;2.30;;
3769;SDS011;1900;48.890;9.190;2023-07-28T11:30:20;5.03;;;2.63;;
3769;SDS011;1900;48.890;9.190;2023-07-28T11:32:48;2.47;;;2.03;;
3769;SDS011;1900;48.890;9.190;2023-07-28T11:35:15;3.07;;;1.90;;
3769;SDS011;1900;48.890;9.190;2023-07-28T11:37:43;2.87;;;2.10;;
3769;SDS011;1900;48.890;9.190;2023-07-28T11:40:11;4.10;;;1.80;;
3769;SDS011;1900;48.890;9.190;2023-07-28T11:42:38;2.40;;;2.00;;
3769;SDS011;1900;48.890;9.190;2023-07-28T11:45:19;4.17;;;2.50;;
3769;SDS011;1900;48.890;9.190;2023-07-28T11:48:02;2.33;;;1.63;;
3769;SDS011;1900;48.890;9.190;2023-07-28T11:50:36;10.00;;;3.50;;
3769;SDS011;1900;48.890;9.190;2023-07-28T11:53:03;3.50;;;2.70;;
3769;SDS011;1900;48.890;9.190;2023-07-28T11:55:31;3.00;;;2.57;;
3769;SDS011;1900;48.890;9.190;2023-07-28T11:57:57;4.40;;;2.07;;
3769;SDS011;1900;48.890;9.190;2023-07-28T12:00:30;6.70;;;3.80;;
3769;SDS011;1900;48.890;9.190;2023-07-28T12:05:35;10.10;;;2.30;;
3769;SDS011;1900;48.890;9.190;2023-07-28T12:08:01;4.00;;;2.10;;
3769;SDS011;1900;48.890;9.190;2023-07-28T12:10:30;3.27;;;2.20;;
3769;SDS011;1900;48.890;9.190;2023-07-28T12:12:57;4.43;;;2.20;;
3769;SDS011;1900;48.890;9.190;2023-07-28T12:15:28;3.90;;;2.20;;
3769;SDS011;1900;48.890;9.190;2023-07-28T12:23:15;2.37;;;1.80;;
3769;SDS011;1900;48.890;9.190;2023-07-28T12:25:45;2.33;;;2.07;;
3769;SDS011;1900;48.890;9.190;2023-07-28T12:28:11;4.47;;;2.17;;
3769;SDS011;1900;48.890;9.190;2023-07-28T12:30:37;2.83;;;2.57;;
3769;SDS011;1900;48.890;9.190;2023-07-28T12:33:04;3.20;;;2.27;;
3769;SDS011;1900;48.890;9.190;2023-07-28T12:35:31;3.50;;;2.60;;
3769;SDS011;1900;48.890;9.190;2023-07-28T12:37:59;3.30;;;2.60;;
3769;SDS011;1900;48.890;9.190;2023-07-28T12:40:30;4.53;;;2.40;;
3769;SDS011;1900;48.890;9.190;2023-07-28T12:42:56;3.53;;;2.57;;
3769;SDS011;1900;48.890;9.190;2023-07-28T12:45:23;4.40;;;2.80;;
3769;SDS011;1900;48.890;9.190;2023-07-28T12:47:53;4.93;;;2.87;;
3769;SDS011;1900;48.890;9.190;2023-07-28T12:50:23;4.60;;;3.07;;
3769;SDS011;1900;48.890;9.190;2023-07-28T12:52:49;2.60;;;2.33;;
3769;SDS011;1900;48.890;9.190;2023-07-28T12:55:15;3.17;;;2.60;;
3769;SDS011;1900;48.890;9.190;2023-07-28T12:57:42;2.60;;;2.40;;
3769;SDS011;1900;48.890;9.190;2023-07-28T13:00:09;4.20;;;2.67;;
3769;SDS011;1900;48.890;9.190;2023-07-28T13:02:44;5.13;;;3.20;;
3769;SDS011;1900;48.890;9.190;2023-07-28T13:05:11;5.00;;;3.67;;
3769;SDS011;1900;48.890;9.190;2023-07-28T13:07:38;6.23;;;4.17;;
3769;SDS011;1900;48.890;9.190;2023-07-28T13:10:06;3.87;;;2.80;;
3769;SDS011;1900;48.890;9.190;2023-07-28T13:12:34;3.67;;;3.10;;
3769;SDS011;1900;48.890;9.190;2023-07-28T13:15:00;3.53;;;3.00;;
3769;SDS011;1900;48.890;9.190;2023-07-28T13:17:25;5.43;;;3.70;;
3769;SDS011;1900;48.890;9.190;2023-07-28T13:19:51;10.13;;;6.03;;
3769;SDS011;1900;48.890;9.190;2023-07-28T13:22:17;11.30;;;7.17;;
3769;SDS011;1900;48.890;9.190;2023-07-28T13:24:42;6.67;;;4.50;;
3769;SDS011;1900;48.890;9.190;2023-07-28T13:27:08;7.00;;;4.13;;
3769;SDS011;1900;48.890;9.190;2023-07-28T13:29:34;5.13;;;3.63;;
3769;SDS011;1900;48.890;9.190;2023-07-28T13:32:00;7.90;;;3.50;;
3769;SDS011;1900;48.890;9.190;2023-07-28T13:34:26;6.27;;;3.17;;
3769;SDS011;1900;48.890;9.190;2023-07-28T13:36:53;6.10;;;3.20;;
3769;SDS011;1900;48.890;9.190;2023-07-28T13:39:19;4.57;;;3.30;;
3769;SDS011;1900;48.890;9.190;2023-07-28T13:41:45;5.53;;;4.10;;
3769;SDS011;1900;48.890;9.190;2023-07-28T13:44:10;4.80;;;3.20;;
3769;SDS011;1900;48.890;9.190;2023-07-28T13:46:36;4.30;;;2.63;;
3769;SDS011;1900;48.890;9.190;2023-07-28T13:49:02;5.53;;;3.53;;
3769;SDS011;1900;48.890;9.190;2023-07-28T13:51:27;4.27;;;3.87;;
3769;SDS011;1900;48.890;9.190;2023-07-28T13:53:53;4.60;;;3.90;;
3769;SDS011;1900;48.890;9.190;2023-07-28T13:56:19;4.23;;;2.87;;
3769;SDS011;1900;48.890;9.190;2023-07-28T13:58:44;5.50;;;3.40;;
3769;SDS011;1900;48.890;9.190;2023-07-28T14:01:10;6.90;;;3.67;;
3769;SDS011;1900;48.890;9.190;2023-07-28T14:03:36;7.37;;;3.50;;
3769;SDS011;1900;48.890;9.190;2023-07-28T14:06:01;7.97;;;3.90;;
3769;SDS011;1900;48.890;9.190;2023-07-28T14:08:27;8.67;;;3.50;;
3769;SDS011;1900;48.890;9.190;2023-07-28T14:10:53;6.57;;;4.10;;
3769;SDS011;1900;48.890;9.190;2023-07-28T14:13:19;5.87;;;4.03;;
3769;SDS011;1900;48.890;9.190;2023-07-28T14:15:44;7.60;;;4.30;;
3769;SDS011;1900;48.890;9.190;2023-07-28T14:18:11;6.57;;;4.20;;
3769;SDS011;1900;48.890;9.190;2023-07-28T14:20:37;7.83;;;4.20;;
3769;SDS011;1900;48.890;9.190;2023-07-28T14:23:07;4.90;;;3.80;;
3769;SDS011;1900;48.890;9.190;2023-07-28T14:25:51;6.63;;;3.40;;
3769;SDS011;1900;48.890;9.190;2023-07-28T14:28:17;5.30;;;3.43;;
3769;SDS011;1900;48.890;9.190;2023-07-28T14:30:44;7.00;;;4.33;;
3769;SDS011;1900;48.890;9.190;2023-07-28T14:33:13;7.77;;;5.03;;
3769;SDS011;1900;48.890;9.190;2023-07-28T14:35:40;6.70;;;4.53;;
3769;SDS011;1900;48.890;9.190;2023-07-28T14:38:06;5.20;;;3.90;;
3769;SDS011;1900;48.890;9.190;2023-07-28T14:40:32;4.60;;;3.50;;
3769;SDS011;1900;48.890;9.190;2023-07-28T14:42:57;5.93;;;4.03;;
3769;SDS011;1900;48.890;9.190;2023-07-28T14:45:23;6.20;;;3.77;;
3769;SDS011;1900;48.890;9.190;2023-07-28T14:47:49;5.73;;;4.50;;
3769;SDS011;1900;48.890;9.190;2023-07-28T14:50:14;4.60;;;3.73;;
3769;SDS011;1900;48.890;9.190;2023-07-28T14:52:40;7.27;;;4.10;;
3769;SDS011;1900;48.890;9.190;2023-07-28T14:55:06;4.73;;;3.90;;
3769;SDS011;1900;48.890;9.190;2023-07-28T14:57:32;6.87;;;4.10;;
3769;SDS011;1900;48.890;9.190;2023-07-28T14:59:57;8.37;;;4.60;;
3769;SDS011;1900;48.890;9.190;2023-07-28T15:02:23;8.70;;;4.67;;
3769;SDS011;1900;48.890;9.190;2023-07-28T15:04:49;8.20;;;3.57;;
3769;SDS011;1900;48.890;9.190;2023-07-28T15:07:15;7.93;;;5.30;;
3769;SDS011;1900;48.890;9.190;2023-07-28T15:09:42;11.70;;;5.20;;
3769;SDS011;1900;48.890;9.190;2023-07-28T15:12:10;7.27;;;4.83;;
3769;SDS011;1900;48.890;9.190;2023-07-28T15:14:36;7.17;;;4.80;;
3769;SDS011;1900;48.890;9.190;2023-07-28T15:17:02;7.60;;;4.13;;
3769;SDS011;1900;48.890;9.190;2023-07-28T15:19:27;5.17;;;3.80;;
3769;SDS011;1900;48.890;9.190;2023-07-28T15:21:53;7.53;;;4.17;;
3769;SDS011;1900;48.890;9.190;2023-07-28T15:24:19;7.63;;;4.13;;
3769;SDS011;1900;48.890;9.190;2023-07-28T15:26:46;8.00;;;4.50;;
3769;SDS011;1900;48.890;9.190;2023-07-28T15:29:14;4.67;;;3.87;;
3769;SDS011;1900;48.890;9.190;2023-07-28T15:31:40;5.93;;;3.83;;
3769;SDS011;1900;48.890;9.190;2023-07-28T15:34:06;6.00;;;3.93;;
3769;SDS011;1900;48.890;9.190;2023-07-28T15:36:32;5.67;;;4.83;;